AAL2754 KBNA-KCLT
Flight info
| Callsign | AAL2754 |
|---|---|
| Flight time | 0h 49m |
| Altitude | 35000 |
| Route | TAZMO4 BURME COMDY FILPZ4 |
| Aircraft | B738/M-SDE2E3FGHIRWXY/LB1 |
Departure
| Time | 2026-05-05 18:29 |
|---|---|
| Airport | Nashville International Airport (KBNA) |
Arrival
| Time | 2026-05-05 19:18 |
|---|---|
| Airport | Charlotte Douglas International Airport (KCLT) |
| Time | Latitude | Longitude | Altitude | Speed | Heading |
|---|---|---|---|---|---|
| 2026-05-05 17:59 | 36.12923 | -86.67132 | 568 ft | 0 kts | 118° |
| 2026-05-05 18:22 | 36.12928 | -86.67143 | 568 ft | 4 kts | 120° |
| 2026-05-05 18:22 | 36.12940 | -86.67166 | 570 ft | 4 kts | 122° |
| 2026-05-05 18:22 | 36.12956 | -86.67189 | 571 ft | 4 kts | 165° |
| 2026-05-05 18:23 | 36.12979 | -86.67185 | 574 ft | 4 kts | 219° |
| 2026-05-05 18:23 | 36.12985 | -86.67178 | 572 ft | 0 kts | 224° |
| 2026-05-05 18:25 | 36.12985 | -86.67179 | 568 ft | 0 kts | 224° |
| 2026-05-05 18:25 | 36.12979 | -86.67185 | 570 ft | 3 kts | 224° |
| 2026-05-05 18:25 | 36.12929 | -86.67240 | 574 ft | 11 kts | 208° |
| 2026-05-05 18:25 | 36.12856 | -86.67271 | 568 ft | 11 kts | 219° |
| 2026-05-05 18:26 | 36.12798 | -86.67336 | 571 ft | 11 kts | 223° |
| 2026-05-05 18:26 | 36.12743 | -86.67401 | 573 ft | 11 kts | 222° |
| 2026-05-05 18:26 | 36.12676 | -86.67460 | 580 ft | 13 kts | 209° |
| 2026-05-05 18:26 | 36.12590 | -86.67522 | 575 ft | 14 kts | 219° |
| 2026-05-05 18:27 | 36.12517 | -86.67603 | 579 ft | 14 kts | 222° |
| 2026-05-05 18:27 | 36.12444 | -86.67673 | 579 ft | 13 kts | 201° |
| 2026-05-05 18:27 | 36.12364 | -86.67714 | 578 ft | 11 kts | 226° |
| 2026-05-05 18:27 | 36.12371 | -86.67809 | 577 ft | 12 kts | 288° |
| 2026-05-05 18:28 | 36.12390 | -86.67972 | 575 ft | 7 kts | 214° |
| 2026-05-05 18:28 | 36.12320 | -86.68003 | 579 ft | 24 kts | 198° |
| 2026-05-05 18:28 | 36.11913 | -86.68165 | 574 ft | 95 kts | 198° |
| 2026-05-05 18:29 | 36.11100 | -86.68487 | 572 ft | 151 kts | 196° |
| 2026-05-05 18:29 | 36.10036 | -86.68916 | 1056 ft | 159 kts | 197° |
| 2026-05-05 18:29 | 36.09005 | -86.69347 | 1918 ft | 156 kts | 197° |
| 2026-05-05 18:29 | 36.07871 | -86.69730 | 2330 ft | 184 kts | 187° |
| 2026-05-05 18:30 | 36.06540 | -86.69461 | 2513 ft | 211 kts | 155° |
| 2026-05-05 18:30 | 36.05177 | -86.68528 | 2750 ft | 238 kts | 154° |
| 2026-05-05 18:30 | 36.03664 | -86.67510 | 3261 ft | 253 kts | 154° |
| 2026-05-05 18:30 | 36.02099 | -86.66456 | 3988 ft | 258 kts | 154° |
| 2026-05-05 18:31 | 36.00521 | -86.65389 | 4850 ft | 259 kts | 155° |
| 2026-05-05 18:31 | 35.99032 | -86.64089 | 5604 ft | 269 kts | 137° |
| 2026-05-05 18:31 | 35.98042 | -86.62092 | 6391 ft | 279 kts | 114° |
| 2026-05-05 18:31 | 35.97705 | -86.59697 | 6857 ft | 287 kts | 97° |
| 2026-05-05 18:32 | 35.97659 | -86.57211 | 7006 ft | 291 kts | 95° |
| 2026-05-05 18:32 | 35.97637 | -86.54715 | 7015 ft | 292 kts | 95° |
| 2026-05-05 18:32 | 35.97597 | -86.52212 | 7019 ft | 291 kts | 96° |
| 2026-05-05 18:32 | 35.97547 | -86.49712 | 7028 ft | 291 kts | 96° |
| 2026-05-05 18:33 | 35.97511 | -86.47245 | 7026 ft | 293 kts | 91° |
| 2026-05-05 18:33 | 35.97945 | -86.44740 | 7202 ft | 303 kts | 76° |
| 2026-05-05 18:33 | 35.98585 | -86.42217 | 8079 ft | 303 kts | 76° |
| 2026-05-05 18:33 | 35.99209 | -86.39770 | 8969 ft | 303 kts | 76° |
| 2026-05-05 18:34 | 35.99843 | -86.37262 | 9768 ft | 307 kts | 76° |
| 2026-05-05 18:34 | 36.00483 | -86.34707 | 10409 ft | 319 kts | 76° |
| 2026-05-05 18:34 | 36.01155 | -86.31980 | 10591 ft | 345 kts | 76° |
| 2026-05-05 18:34 | 36.01874 | -86.29045 | 10825 ft | 367 kts | 75° |
| 2026-05-05 18:35 | 36.02623 | -86.25986 | 11376 ft | 377 kts | 75° |
| 2026-05-05 18:35 | 36.03391 | -86.22859 | 12071 ft | 383 kts | 75° |
| 2026-05-05 18:35 | 36.04169 | -86.19687 | 12766 ft | 389 kts | 75° |
| 2026-05-05 18:35 | 36.04957 | -86.16467 | 13508 ft | 393 kts | 75° |
| 2026-05-05 18:36 | 36.05749 | -86.13212 | 14232 ft | 398 kts | 75° |
| 2026-05-05 18:36 | 36.06549 | -86.09909 | 14958 ft | 404 kts | 74° |
| 2026-05-05 18:36 | 36.07126 | -86.06509 | 15698 ft | 406 kts | 90° |
| 2026-05-05 18:36 | 36.06934 | -86.03027 | 16479 ft | 407 kts | 99° |
| 2026-05-05 18:37 | 36.06631 | -85.99530 | 17148 ft | 413 kts | 98° |
| 2026-05-05 18:37 | 36.06337 | -85.95972 | 17782 ft | 419 kts | 98° |
| 2026-05-05 18:37 | 36.06062 | -85.92362 | 18417 ft | 424 kts | 97° |
| 2026-05-05 18:37 | 36.05802 | -85.88742 | 19056 ft | 429 kts | 97° |
| 2026-05-05 18:38 | 36.05546 | -85.85047 | 19650 ft | 434 kts | 96° |
| 2026-05-05 18:38 | 36.05283 | -85.81306 | 20244 ft | 439 kts | 96° |
| 2026-05-05 18:38 | 36.05015 | -85.77524 | 20813 ft | 444 kts | 96° |
| 2026-05-05 18:38 | 36.04745 | -85.73686 | 21364 ft | 449 kts | 96° |
| 2026-05-05 18:39 | 36.04472 | -85.69814 | 21926 ft | 453 kts | 95° |
| 2026-05-05 18:39 | 36.04199 | -85.65927 | 22435 ft | 458 kts | 95° |
| 2026-05-05 18:39 | 36.03922 | -85.61990 | 22915 ft | 463 kts | 95° |
| 2026-05-05 18:39 | 36.03641 | -85.58010 | 23423 ft | 466 kts | 95° |
| 2026-05-05 18:40 | 36.03358 | -85.54002 | 23934 ft | 469 kts | 95° |
| 2026-05-05 18:40 | 36.03073 | -85.49971 | 24411 ft | 473 kts | 95° |
| 2026-05-05 18:40 | 36.02786 | -85.45900 | 24829 ft | 477 kts | 95° |
| 2026-05-05 18:40 | 36.02498 | -85.41850 | 25223 ft | 482 kts | 95° |
| 2026-05-05 18:41 | 36.02199 | -85.37711 | 25611 ft | 486 kts | 95° |
| 2026-05-05 18:41 | 36.01895 | -85.33530 | 26011 ft | 490 kts | 95° |
| 2026-05-05 18:41 | 36.01593 | -85.29321 | 26448 ft | 493 kts | 95° |
| 2026-05-05 18:41 | 36.01284 | -85.25091 | 26846 ft | 497 kts | 94° |
| 2026-05-05 18:42 | 36.00970 | -85.20820 | 27174 ft | 501 kts | 94° |
| 2026-05-05 18:42 | 36.00653 | -85.16521 | 27559 ft | 504 kts | 94° |
| 2026-05-05 18:42 | 36.00335 | -85.12194 | 27952 ft | 507 kts | 94° |
| 2026-05-05 18:42 | 36.00015 | -85.07852 | 28315 ft | 510 kts | 94° |
| 2026-05-05 18:43 | 35.99690 | -85.03483 | 28646 ft | 513 kts | 94° |
| 2026-05-05 18:43 | 35.99396 | -84.99074 | 28966 ft | 516 kts | 93° |
| 2026-05-05 18:43 | 35.99126 | -84.94638 | 29286 ft | 519 kts | 92° |
| 2026-05-05 18:43 | 35.98864 | -84.90176 | 29636 ft | 521 kts | 92° |
| 2026-05-05 18:44 | 35.98692 | -84.87214 | 29845 ft | 523 kts | 92° |
| 2026-05-05 18:44 | 35.98429 | -84.82715 | 30137 ft | 527 kts | 92° |
| 2026-05-05 18:44 | 35.98070 | -84.76731 | 30590 ft | 528 kts | 92° |
| 2026-05-05 18:44 | 35.97794 | -84.72213 | 31068 ft | 526 kts | 92° |
| 2026-05-05 18:45 | 35.97515 | -84.67717 | 31498 ft | 525 kts | 92° |
| 2026-05-05 18:45 | 35.97233 | -84.63224 | 31868 ft | 525 kts | 92° |
| 2026-05-05 18:45 | 35.97045 | -84.60235 | 32093 ft | 526 kts | 91° |
| 2026-05-05 18:45 | 35.96760 | -84.55743 | 32461 ft | 525 kts | 91° |
| 2026-05-05 18:46 | 35.96474 | -84.51256 | 32844 ft | 524 kts | 91° |
| 2026-05-05 18:46 | 35.96186 | -84.46759 | 33034 ft | 527 kts | 91° |
| 2026-05-05 18:46 | 35.95600 | -84.37675 | 33026 ft | 530 kts | 91° |
| 2026-05-05 18:47 | 35.95009 | -84.28679 | 33023 ft | 523 kts | 91° |
| 2026-05-05 18:47 | 35.94420 | -84.19726 | 33043 ft | 524 kts | 91° |
| 2026-05-05 18:48 | 35.93825 | -84.10753 | 33032 ft | 525 kts | 91° |
| 2026-05-05 18:48 | 35.93220 | -84.01820 | 33027 ft | 526 kts | 91° |
| 2026-05-05 18:49 | 35.92604 | -83.92807 | 33018 ft | 526 kts | 91° |
| 2026-05-05 18:49 | 35.91983 | -83.83800 | 33010 ft | 526 kts | 91° |
| 2026-05-05 18:50 | 35.91358 | -83.74810 | 33000 ft | 525 kts | 91° |
| 2026-05-05 18:50 | 35.90726 | -83.65833 | 33006 ft | 525 kts | 91° |
| 2026-05-05 18:51 | 35.90088 | -83.56853 | 33005 ft | 525 kts | 91° |
| 2026-05-05 18:51 | 35.89449 | -83.47930 | 33000 ft | 525 kts | 91° |
| 2026-05-05 18:52 | 35.87937 | -83.39095 | 33007 ft | 529 kts | 105° |
| 2026-05-05 18:52 | 35.85781 | -83.30410 | 32488 ft | 530 kts | 104° |
| 2026-05-05 18:53 | 35.84755 | -83.26056 | 31815 ft | 528 kts | 104° |
| 2026-05-05 18:53 | 35.83778 | -83.21693 | 31104 ft | 528 kts | 104° |
| 2026-05-05 18:53 | 35.82809 | -83.17319 | 30361 ft | 528 kts | 104° |
| 2026-05-05 18:53 | 35.81844 | -83.12959 | 29683 ft | 526 kts | 104° |
| 2026-05-05 18:54 | 35.80879 | -83.08635 | 29143 ft | 520 kts | 105° |
| 2026-05-05 18:54 | 35.79927 | -83.04356 | 28579 ft | 514 kts | 105° |
| 2026-05-05 18:54 | 35.78987 | -83.00132 | 28019 ft | 508 kts | 105° |
| 2026-05-05 18:54 | 35.78055 | -82.95961 | 27458 ft | 502 kts | 105° |
| 2026-05-05 18:55 | 35.77134 | -82.91838 | 26905 ft | 496 kts | 105° |
| 2026-05-05 18:55 | 35.76225 | -82.87769 | 26351 ft | 490 kts | 105° |
| 2026-05-05 18:55 | 35.75327 | -82.83750 | 25822 ft | 483 kts | 106° |
| 2026-05-05 18:55 | 35.74449 | -82.79830 | 25266 ft | 478 kts | 106° |
| 2026-05-05 18:56 | 35.73577 | -82.75934 | 25002 ft | 465 kts | 107° |
| 2026-05-05 18:56 | 35.72728 | -82.72156 | 24809 ft | 451 kts | 107° |
| 2026-05-05 18:56 | 35.71897 | -82.68477 | 24520 ft | 441 kts | 107° |
| 2026-05-05 18:56 | 35.71073 | -82.64861 | 24055 ft | 436 kts | 107° |
| 2026-05-05 18:57 | 35.70257 | -82.61300 | 23626 ft | 430 kts | 107° |
| 2026-05-05 18:57 | 35.69450 | -82.57775 | 23169 ft | 425 kts | 107° |
| 2026-05-05 18:57 | 35.68652 | -82.54293 | 22732 ft | 420 kts | 107° |
| 2026-05-05 18:57 | 35.67864 | -82.50849 | 22302 ft | 416 kts | 107° |
| 2026-05-05 18:58 | 35.67088 | -82.47446 | 21871 ft | 411 kts | 107° |
| 2026-05-05 18:58 | 35.66318 | -82.44083 | 21425 ft | 407 kts | 108° |
| 2026-05-05 18:58 | 35.65554 | -82.40755 | 21005 ft | 402 kts | 108° |
| 2026-05-05 18:58 | 35.64807 | -82.37499 | 20590 ft | 399 kts | 108° |
| 2026-05-05 18:59 | 35.64058 | -82.34235 | 20170 ft | 395 kts | 108° |
| 2026-05-05 18:59 | 35.63312 | -82.30996 | 19739 ft | 392 kts | 108° |
| 2026-05-05 18:59 | 35.62568 | -82.27771 | 19323 ft | 388 kts | 108° |
| 2026-05-05 18:59 | 35.61831 | -82.24595 | 18905 ft | 385 kts | 108° |
| 2026-05-05 19:00 | 35.61098 | -82.21447 | 18505 ft | 381 kts | 108° |
| 2026-05-05 19:00 | 35.60374 | -82.18330 | 18094 ft | 377 kts | 108° |
| 2026-05-05 19:00 | 35.59658 | -82.15241 | 17682 ft | 374 kts | 108° |
| 2026-05-05 19:00 | 35.58949 | -82.12182 | 17279 ft | 371 kts | 109° |
| 2026-05-05 19:01 | 35.58252 | -82.09192 | 16891 ft | 367 kts | 109° |
| 2026-05-05 19:01 | 35.57542 | -82.06150 | 16475 ft | 365 kts | 108° |
| 2026-05-05 19:01 | 35.56936 | -82.03167 | 16075 ft | 363 kts | 105° |
| 2026-05-05 19:01 | 35.56384 | -82.00109 | 15610 ft | 362 kts | 105° |
| 2026-05-05 19:02 | 35.55858 | -81.97096 | 15207 ft | 358 kts | 105° |
| 2026-05-05 19:02 | 35.55342 | -81.94157 | 14809 ft | 355 kts | 105° |
| 2026-05-05 19:02 | 35.54815 | -81.91208 | 14415 ft | 352 kts | 105° |
| 2026-05-05 19:02 | 35.54286 | -81.88277 | 14028 ft | 350 kts | 106° |
| 2026-05-05 19:03 | 35.53761 | -81.85375 | 13647 ft | 347 kts | 106° |
| 2026-05-05 19:03 | 35.53238 | -81.82495 | 13259 ft | 344 kts | 106° |
| 2026-05-05 19:03 | 35.52723 | -81.79671 | 13112 ft | 334 kts | 106° |
| 2026-05-05 19:03 | 35.52220 | -81.76929 | 12965 ft | 324 kts | 107° |
| 2026-05-05 19:04 | 35.51735 | -81.74266 | 12763 ft | 316 kts | 107° |
| 2026-05-05 19:04 | 35.51250 | -81.71637 | 12443 ft | 315 kts | 107° |
| 2026-05-05 19:04 | 35.50772 | -81.69015 | 12133 ft | 313 kts | 107° |
| 2026-05-05 19:04 | 35.50300 | -81.66412 | 11820 ft | 311 kts | 107° |
| 2026-05-05 19:05 | 35.49834 | -81.63866 | 11508 ft | 309 kts | 107° |
| 2026-05-05 19:05 | 35.49363 | -81.61300 | 11198 ft | 307 kts | 107° |
| 2026-05-05 19:05 | 35.49029 | -81.58711 | 10870 ft | 310 kts | 92° |
| 2026-05-05 19:05 | 35.49278 | -81.56076 | 10642 ft | 310 kts | 85° |
| 2026-05-05 19:06 | 35.49578 | -81.53451 | 10368 ft | 311 kts | 86° |
| 2026-05-05 19:06 | 35.49855 | -81.50825 | 10100 ft | 308 kts | 86° |
| 2026-05-05 19:06 | 35.50111 | -81.48229 | 9824 ft | 305 kts | 86° |
| 2026-05-05 19:06 | 35.50362 | -81.45662 | 9557 ft | 301 kts | 87° |
| 2026-05-05 19:07 | 35.50610 | -81.43120 | 9306 ft | 298 kts | 87° |
| 2026-05-05 19:07 | 35.50855 | -81.40609 | 9040 ft | 294 kts | 87° |
| 2026-05-05 19:07 | 35.51097 | -81.38129 | 8796 ft | 292 kts | 87° |
| 2026-05-05 19:07 | 35.51332 | -81.35697 | 8537 ft | 289 kts | 87° |
| 2026-05-05 19:08 | 35.51568 | -81.33255 | 8302 ft | 286 kts | 87° |
| 2026-05-05 19:08 | 35.51801 | -81.30838 | 8044 ft | 284 kts | 87° |
| 2026-05-05 19:08 | 35.52032 | -81.28443 | 7801 ft | 282 kts | 87° |
| 2026-05-05 19:08 | 35.52261 | -81.26064 | 7569 ft | 279 kts | 87° |
| 2026-05-05 19:09 | 35.52487 | -81.23709 | 7398 ft | 273 kts | 87° |
| 2026-05-05 19:09 | 35.52700 | -81.21442 | 7320 ft | 262 kts | 88° |
| 2026-05-05 19:09 | 35.52907 | -81.19232 | 7043 ft | 257 kts | 88° |
| 2026-05-05 19:09 | 35.53056 | -81.17045 | 6596 ft | 258 kts | 90° |
| 2026-05-05 19:10 | 35.53176 | -81.14848 | 6207 ft | 256 kts | 91° |
| 2026-05-05 19:10 | 35.53286 | -81.12699 | 5779 ft | 255 kts | 91° |
| 2026-05-05 19:10 | 35.53404 | -81.10527 | 5371 ft | 255 kts | 90° |
| 2026-05-05 19:10 | 35.53445 | -81.08372 | 5029 ft | 249 kts | 99° |
| 2026-05-05 19:11 | 35.53255 | -81.06265 | 4632 ft | 248 kts | 102° |
| 2026-05-05 19:11 | 35.53037 | -81.04179 | 4262 ft | 245 kts | 102° |
| 2026-05-05 19:11 | 35.52814 | -81.02101 | 4055 ft | 247 kts | 102° |
| 2026-05-05 19:11 | 35.52582 | -80.99994 | 3984 ft | 249 kts | 102° |
| 2026-05-05 19:12 | 35.52216 | -80.97968 | 3981 ft | 238 kts | 120° |
| 2026-05-05 19:12 | 35.51175 | -80.96491 | 3979 ft | 225 kts | 152° |
| 2026-05-05 19:12 | 35.49743 | -80.96009 | 3984 ft | 211 kts | 186° |
| 2026-05-05 19:12 | 35.48351 | -80.96506 | 3997 ft | 209 kts | 202° |
| 2026-05-05 19:13 | 35.46996 | -80.97164 | 3994 ft | 210 kts | 202° |
| 2026-05-05 19:13 | 35.45643 | -80.97831 | 3978 ft | 208 kts | 202° |
| 2026-05-05 19:13 | 35.44295 | -80.98434 | 3961 ft | 206 kts | 191° |
| 2026-05-05 19:13 | 35.42861 | -80.98431 | 3971 ft | 207 kts | 178° |
| 2026-05-05 19:14 | 35.41421 | -80.98333 | 3971 ft | 207 kts | 179° |
| 2026-05-05 19:14 | 35.40001 | -80.98230 | 3972 ft | 207 kts | 179° |
| 2026-05-05 19:14 | 35.38541 | -80.98112 | 3852 ft | 212 kts | 178° |
| 2026-05-05 19:14 | 35.37052 | -80.97985 | 3585 ft | 215 kts | 178° |
| 2026-05-05 19:15 | 35.35574 | -80.97859 | 3320 ft | 208 kts | 178° |
| 2026-05-05 19:15 | 35.34148 | -80.97738 | 3023 ft | 202 kts | 178° |
| 2026-05-05 19:15 | 35.32791 | -80.97616 | 2781 ft | 188 kts | 178° |
| 2026-05-05 19:15 | 35.31516 | -80.97511 | 2515 ft | 179 kts | 179° |
| 2026-05-05 19:16 | 35.30318 | -80.97405 | 2295 ft | 165 kts | 179° |
| 2026-05-05 19:16 | 35.29236 | -80.97316 | 2090 ft | 152 kts | 180° |
| 2026-05-05 19:16 | 35.28200 | -80.97237 | 1847 ft | 147 kts | 182° |
| 2026-05-05 19:16 | 35.27186 | -80.97151 | 1624 ft | 141 kts | 179° |
| 2026-05-05 19:17 | 35.26193 | -80.97058 | 1516 ft | 147 kts | 179° |
| 2026-05-05 19:17 | 35.25165 | -80.96969 | 1325 ft | 151 kts | 180° |
| 2026-05-05 19:17 | 35.24120 | -80.96881 | 1078 ft | 149 kts | 180° |
| 2026-05-05 19:17 | 35.23097 | -80.96787 | 889 ft | 145 kts | 181° |
| 2026-05-05 19:18 | 35.22095 | -80.96700 | 752 ft | 141 kts | 179° |
| 2026-05-05 19:18 | 35.21248 | -80.96633 | 738 ft | 94 kts | 176° |
| 2026-05-05 19:18 | 35.20866 | -80.96570 | 739 ft | 30 kts | 154° |
| 2026-05-05 19:18 | 35.20735 | -80.96470 | 736 ft | 18 kts | 141° |
| 2026-05-05 19:19 | 35.20696 | -80.96408 | 732 ft | 6 kts | 80° |
| 2026-05-05 19:19 | 35.20717 | -80.96358 | 732 ft | 7 kts | 66° |
| 2026-05-05 19:19 | 35.20727 | -80.96296 | 732 ft | 8 kts | 85° |
| 2026-05-05 19:19 | 35.20731 | -80.96222 | 731 ft | 9 kts | 84° |
| 2026-05-05 19:20 | 35.20739 | -80.96149 | 730 ft | 9 kts | 77° |
| 2026-05-05 19:20 | 35.20765 | -80.96086 | 731 ft | 9 kts | 51° |
| 2026-05-05 19:20 | 35.20814 | -80.96033 | 730 ft | 10 kts | 36° |
| 2026-05-05 19:20 | 35.20868 | -80.95985 | 730 ft | 10 kts | 36° |
| 2026-05-05 19:21 | 35.20921 | -80.95938 | 731 ft | 9 kts | 36° |
| 2026-05-05 19:21 | 35.20981 | -80.95883 | 731 ft | 13 kts | 36° |
| 2026-05-05 19:21 | 35.21067 | -80.95803 | 731 ft | 17 kts | 44° |
| 2026-05-05 19:21 | 35.21119 | -80.95675 | 731 ft | 17 kts | 83° |
| 2026-05-05 19:22 | 35.21128 | -80.95533 | 732 ft | 16 kts | 86° |
| 2026-05-05 19:22 | 35.21135 | -80.95397 | 732 ft | 16 kts | 87° |
| 2026-05-05 19:22 | 35.21142 | -80.95267 | 734 ft | 15 kts | 85° |
| 2026-05-05 19:22 | 35.21150 | -80.95142 | 735 ft | 14 kts | 85° |
| 2026-05-05 19:23 | 35.21170 | -80.95032 | 732 ft | 11 kts | 54° |
| 2026-05-05 19:23 | 35.21233 | -80.94987 | 732 ft | 11 kts | 1° |
| 2026-05-05 19:23 | 35.21318 | -80.94996 | 732 ft | 14 kts | 355° |
| 2026-05-05 19:23 | 35.21412 | -80.95004 | 732 ft | 13 kts | 357° |
| 2026-05-05 19:24 | 35.21506 | -80.95012 | 732 ft | 14 kts | 355° |
| 2026-05-05 19:24 | 35.21592 | -80.94982 | 732 ft | 13 kts | 63° |
| 2026-05-05 19:24 | 35.21608 | -80.94873 | 732 ft | 13 kts | 85° |
| 2026-05-05 19:24 | 35.21614 | -80.94767 | 731 ft | 12 kts | 86° |
| 2026-05-05 19:25 | 35.21620 | -80.94663 | 731 ft | 12 kts | 86° |
| 2026-05-05 19:25 | 35.21625 | -80.94562 | 731 ft | 12 kts | 86° |
| 2026-05-05 19:25 | 35.21636 | -80.94465 | 731 ft | 11 kts | 73° |
| 2026-05-05 19:25 | 35.21676 | -80.94386 | 730 ft | 11 kts | 30° |
| 2026-05-05 19:26 | 35.21749 | -80.94379 | 731 ft | 10 kts | 356° |
| 2026-05-05 19:26 | 35.21813 | -80.94383 | 731 ft | 9 kts | 1° |
| 2026-05-05 19:26 | 35.21831 | -80.94324 | 731 ft | 6 kts | 95° |
| 2026-05-05 19:26 | 35.21828 | -80.94298 | 731 ft | 2 kts | 96° |
| 2026-05-05 19:27 | 35.21828 | -80.94292 | 731 ft | 0 kts | 96° |